createdAt,value
2023-03-29T00:00:08.397Z,5.0
2023-03-29T00:05:08.455Z,5.0
2023-03-29T00:10:09.268Z,5.0
2023-03-29T00:15:08.333Z,5.0
2023-03-29T00:20:08.398Z,5.0
2023-03-29T00:25:08.436Z,5.0
2023-03-29T00:30:08.515Z,5.0
2023-03-29T00:35:08.570Z,5.0
2023-03-29T00:40:08.654Z,5.3
2023-03-29T00:45:08.727Z,5.3
2023-03-29T00:50:18.784Z,5.3
2023-03-29T00:55:08.787Z,5.3
2023-03-29T01:00:08.933Z,5.3
2023-03-29T01:05:07.929Z,5.3
2023-03-29T01:10:08.006Z,5.3
2023-03-29T01:15:08.277Z,5.3
2023-03-29T01:20:08.324Z,5.3
2023-03-29T01:25:08.380Z,5.3
2023-03-29T01:30:08.429Z,5.3
2023-03-29T01:35:09.796Z,5.3
2023-03-29T01:40:08.853Z,5.3
2023-03-29T01:45:10.915Z,5.3
2023-03-29T01:50:09.009Z,5.3
2023-03-29T01:55:08.095Z,5.3
2023-03-29T02:05:08.178Z,5.4
2023-03-29T02:10:08.264Z,5.4
2023-03-29T02:15:08.320Z,5.4
2023-03-29T02:20:08.434Z,5.4
2023-03-29T02:25:08.479Z,5.4
2023-03-29T02:30:08.619Z,5.4
2023-03-29T02:35:08.652Z,5.4
2023-03-29T02:40:08.718Z,5.5
2023-03-29T02:45:08.767Z,5.5
2023-03-29T02:50:08.830Z,5.5
2023-03-29T02:55:08.896Z,5.5
2023-03-29T03:00:10.594Z,5.8
2023-03-29T03:05:08.760Z,5.8
2023-03-29T03:10:08.773Z,5.5
2023-03-29T03:15:08.838Z,5.5
2023-03-29T03:20:08.868Z,5.5
2023-03-29T03:25:08.912Z,5.5
2023-03-29T03:30:08.931Z,5.5
2023-03-29T03:35:07.960Z,5.5
2023-03-29T03:40:08.007Z,5.5
2023-03-29T03:45:08.048Z,5.4
2023-03-29T03:50:08.120Z,5.4
2023-03-29T03:55:08.192Z,5.4
2023-03-29T04:00:08.202Z,5.4
2023-03-29T04:05:02.360Z,5.3
2023-03-29T04:10:02.529Z,5.4
2023-03-29T04:15:02.880Z,5.4
2023-03-29T04:20:03.148Z,5.4
2023-03-29T04:25:02.276Z,5.4
2023-03-29T04:30:02.663Z,5.5
2023-03-29T04:35:02.881Z,5.5
2023-03-29T04:40:03.151Z,5.5
2023-03-29T04:45:02.474Z,5.5
2023-03-29T04:50:02.714Z,5.5
2023-03-29T04:55:02.909Z,5.5
2023-03-29T05:00:03.216Z,5.5
2023-03-29T05:05:02.407Z,5.8
2023-03-29T05:10:02.620Z,5.5
2023-03-29T05:15:02.764Z,5.5
2023-03-29T05:20:02.932Z,5.8
2023-03-29T05:25:03.110Z,5.8
2023-03-29T05:30:02.279Z,5.8
2023-03-29T05:35:02.500Z,5.8
2023-03-29T05:40:05.555Z,5.9
2023-03-29T05:45:02.500Z,5.9
2023-03-29T05:50:02.853Z,5.9
2023-03-29T05:55:02.938Z,5.9
2023-03-29T06:00:02.227Z,6.0
2023-03-29T06:05:02.601Z,6.0
2023-03-29T06:10:02.809Z,6.1
2023-03-29T06:15:03.002Z,6.1
2023-03-29T06:20:02.278Z,6.1
2023-03-29T06:25:02.492Z,6.1
2023-03-29T06:30:02.703Z,6.4
2023-03-29T06:35:02.953Z,6.4
2023-03-29T06:40:02.252Z,6.4
2023-03-29T06:45:02.509Z,6.4
2023-03-29T06:50:02.834Z,6.5
2023-03-29T06:55:02.988Z,6.5
2023-03-29T07:00:02.166Z,6.6
2023-03-29T07:05:02.450Z,6.6
2023-03-29T07:10:02.741Z,6.9
2023-03-29T07:15:02.920Z,6.9
2023-03-29T07:20:03.090Z,7.0
2023-03-29T07:25:02.232Z,7.1
2023-03-29T07:30:03.140Z,7.1
2023-03-29T07:35:02.311Z,7.1
2023-03-29T07:40:02.514Z,7.5
2023-03-29T07:45:02.644Z,7.5
2023-03-29T07:50:02.803Z,7.6
2023-03-29T07:55:03.072Z,7.6
2023-03-29T08:00:02.278Z,7.9
2023-03-29T08:05:02.736Z,8.0
2023-03-29T08:10:02.997Z,7.9
2023-03-29T08:15:02.279Z,8.0
2023-03-29T08:20:02.560Z,8.0
2023-03-29T08:25:02.785Z,8.0
2023-03-29T08:30:03.260Z,8.0
2023-03-29T08:35:02.479Z,8.1
2023-03-29T08:40:02.737Z,8.3
2023-03-29T08:45:12.901Z,8.5
2023-03-29T08:50:03.154Z,8.8
2023-03-29T08:55:02.451Z,8.8
2023-03-29T09:00:02.664Z,8.6
2023-03-29T09:05:02.885Z,8.6
2023-03-29T09:10:04.775Z,8.6
2023-03-29T09:15:03.037Z,9.1
2023-03-29T09:20:02.123Z,9.3
2023-03-29T09:25:13.266Z,9.1
2023-03-29T09:30:02.782Z,9.1
2023-03-29T09:35:02.926Z,9.0
2023-03-29T09:40:04.974Z,9.5
2023-03-29T09:45:02.419Z,9.8
2023-03-29T09:50:02.587Z,9.8
2023-03-29T09:55:02.829Z,9.6
2023-03-29T10:00:02.167Z,9.6
2023-03-29T10:05:02.411Z,9.6
2023-03-29T10:10:02.608Z,10.1
2023-03-29T10:15:02.884Z,10.1
2023-03-29T10:20:04.363Z,10.5
2023-03-29T10:25:02.810Z,10.5
2023-03-29T10:30:03.102Z,10.1
2023-03-29T10:35:02.388Z,10.1
2023-03-29T10:40:02.672Z,10.1
2023-03-29T10:45:02.853Z,10.1
2023-03-29T10:50:03.153Z,10.1
2023-03-29T10:55:02.311Z,10.0
2023-03-29T11:00:02.497Z,10.1
2023-03-29T11:05:08.583Z,10.3
2023-03-29T11:10:02.815Z,10.6
2023-03-29T11:15:03.179Z,10.5
2023-03-29T11:20:04.510Z,10.3
2023-03-29T11:25:02.450Z,10.3
2023-03-29T11:30:02.651Z,10.0
2023-03-29T11:35:13.087Z,10.0
2023-03-29T11:40:02.341Z,10.1
2023-03-29T11:45:02.560Z,10.0
2023-03-29T11:50:02.694Z,10.1
2023-03-29T11:55:02.795Z,10.0
2023-03-29T12:00:03.038Z,10.8
2023-03-29T12:05:02.285Z,10.8
2023-03-29T12:10:04.450Z,11.0
2023-03-29T12:15:02.705Z,11.0
2023-03-29T12:20:02.833Z,11.0
2023-03-29T12:25:03.034Z,11.0
2023-03-29T12:30:02.272Z,11.3
2023-03-29T12:35:02.499Z,11.3
2023-03-29T12:40:02.675Z,11.3
2023-03-29T12:45:03.017Z,11.3
2023-03-29T12:50:02.231Z,11.6
2023-03-29T12:55:02.383Z,11.6
2023-03-29T13:00:02.519Z,13.1
2023-03-29T13:05:02.764Z,13.1
2023-03-29T13:10:02.970Z,13.1
2023-03-29T13:15:02.213Z,12.6
2023-03-29T13:20:02.378Z,12.6
2023-03-29T13:25:02.596Z,12.8
2023-03-29T13:30:02.794Z,12.8
2023-03-29T13:35:12.979Z,13.3
2023-03-29T13:40:02.358Z,13.3
2023-03-29T13:45:02.489Z,13.1
2023-03-29T13:50:02.793Z,13.1
2023-03-29T13:55:03.089Z,13.5
2023-03-29T14:00:02.281Z,13.5
2023-03-29T14:05:02.466Z,13.5
2023-03-29T14:10:02.568Z,13.6
2023-03-29T14:15:02.653Z,13.6
2023-03-29T14:20:03.055Z,13.8
2023-03-29T14:25:02.284Z,13.8
2023-03-29T14:30:02.397Z,14.5
2023-03-29T14:35:02.565Z,14.5
2023-03-29T14:40:02.789Z,14.3
2023-03-29T14:45:03.056Z,14.3
2023-03-29T14:50:02.180Z,14.3
2023-03-29T14:55:02.378Z,14.3
2023-03-29T15:00:02.568Z,14.3
2023-03-29T15:05:02.950Z,14.3
2023-03-29T15:10:02.242Z,14.1
2023-03-29T15:15:02.534Z,14.1
2023-03-29T15:20:02.910Z,14.3
2023-03-29T15:25:03.144Z,14.3
2023-03-29T15:30:02.451Z,14.1
2023-03-29T15:35:02.647Z,14.1
2023-03-29T15:40:02.903Z,14.3
2023-03-29T15:45:03.164Z,14.3
2023-03-29T15:50:02.443Z,14.3
2023-03-29T15:55:02.676Z,14.3
2023-03-29T16:00:02.885Z,14.3
2023-03-29T16:05:03.104Z,14.3
2023-03-29T16:10:02.182Z,14.5
2023-03-29T16:15:02.424Z,14.5
2023-03-29T16:20:02.690Z,14.5
2023-03-29T16:25:02.849Z,14.5
2023-03-29T16:30:03.024Z,14.3
2023-03-29T16:35:02.294Z,14.3
2023-03-29T16:40:02.467Z,14.3
2023-03-29T16:45:02.687Z,14.3
2023-03-29T16:50:02.935Z,14.3
2023-03-29T16:55:02.235Z,14.3
2023-03-29T17:00:02.967Z,14.3
2023-03-29T17:05:02.154Z,14.3
2023-03-29T17:10:02.306Z,14.1
2023-03-29T17:15:02.791Z,14.1
2023-03-29T17:20:03.014Z,14.0
2023-03-29T17:25:02.257Z,14.0
2023-03-29T17:30:02.325Z,14.0
2023-03-29T17:35:02.495Z,14.0
2023-03-29T17:40:02.756Z,14.0
2023-03-29T17:45:02.861Z,13.8
2023-03-29T17:50:03.028Z,13.6
2023-03-29T17:55:02.312Z,13.6
2023-03-29T18:00:02.609Z,13.5
2023-03-29T18:05:02.820Z,13.5
2023-03-29T18:10:02.956Z,13.5
2023-03-29T18:15:02.293Z,13.6
2023-03-29T18:20:02.558Z,13.6
2023-03-29T18:25:02.832Z,13.5
2023-03-29T18:30:03.047Z,13.5
2023-03-29T18:35:02.339Z,13.5
2023-03-29T18:40:02.527Z,13.5
2023-03-29T18:45:02.829Z,13.6
2023-03-29T18:50:03.163Z,13.6
2023-03-29T18:55:02.281Z,13.6
2023-03-29T19:00:02.459Z,13.6
2023-03-29T19:05:02.573Z,13.5
2023-03-29T19:10:04.212Z,13.5
2023-03-29T19:15:02.470Z,13.3
2023-03-29T19:20:02.757Z,13.3
2023-03-29T19:25:02.956Z,13.1
2023-03-29T19:30:02.115Z,13.1
2023-03-29T19:35:02.290Z,13.1
2023-03-29T19:40:02.444Z,13.1
2023-03-29T19:45:02.673Z,13.1
2023-03-29T19:50:02.940Z,13.1
2023-03-29T19:55:02.099Z,13.1
2023-03-29T20:00:02.210Z,13.1
2023-03-29T20:05:02.394Z,13.1
2023-03-29T20:10:02.608Z,13.1
2023-03-29T20:15:02.842Z,13.1
2023-03-29T20:20:04.825Z,12.8
2023-03-29T20:25:03.019Z,12.8
2023-03-29T20:30:02.253Z,12.8
2023-03-29T20:35:02.368Z,12.8
2023-03-29T20:40:02.601Z,13.1
2023-03-29T20:45:02.772Z,13.1
2023-03-29T20:50:02.960Z,12.8
2023-03-29T20:55:02.116Z,12.8
2023-03-29T21:00:02.237Z,13.1
2023-03-29T21:05:15.262Z,13.1
2023-03-29T21:10:08.376Z,13.1
2023-03-29T21:15:08.432Z,13.1
2023-03-29T21:20:08.486Z,13.1
2023-03-29T21:25:08.563Z,13.1
2023-03-29T21:30:08.599Z,12.8
2023-03-29T21:35:08.637Z,12.8
2023-03-29T21:40:08.680Z,12.8
2023-03-29T21:45:08.756Z,12.8
2023-03-29T21:50:08.832Z,12.6
2023-03-29T21:55:08.840Z,12.6
2023-03-29T22:00:08.882Z,12.6
2023-03-29T22:05:08.907Z,12.6
2023-03-29T22:10:08.964Z,12.6
2023-03-29T22:15:07.971Z,12.6
2023-03-29T22:20:08.064Z,12.6
2023-03-29T22:25:08.098Z,12.6
2023-03-29T22:30:08.108Z,12.5
2023-03-29T22:35:08.183Z,12.5
2023-03-29T22:40:08.231Z,12.5
2023-03-29T22:45:08.248Z,12.5
2023-03-29T22:50:08.343Z,12.5
2023-03-29T22:55:08.423Z,12.5
2023-03-29T23:01:12.238Z,12.3
2023-03-29T23:05:08.562Z,12.3
2023-03-29T23:10:08.599Z,12.3
2023-03-29T23:15:08.646Z,12.3
2023-03-29T23:20:08.683Z,12.3
2023-03-29T23:25:08.737Z,12.3
2023-03-29T23:30:08.801Z,12.3
2023-03-29T23:35:08.871Z,12.3
2023-03-29T23:40:08.922Z,12.6
2023-03-29T23:45:08.993Z,12.6
2023-03-29T23:50:08.051Z,12.8
2023-03-29T23:55:08.062Z,12.8
